Udon Thani, Thailand

9:21 AM ICT on August 04, 2015 (GMT +0700)
Udon Thani | | Change Station
CLOSE
Current Station
Airport
Location: Udon Thani,
Elevation: 584 ft
Nearby Weather Stations

Elev 584 ft 17.38 °N, 102.81 °E | Updated 21 minutes ago

Scattered Clouds
Scattered Clouds
81 °F
Feels Like 86 °F
N
5
Wind Variable Wind from SSE

Today
High -- | Low -- °F
--% Chance of Precip.
Yesterday
High -- | Low -- °F
Precip. -- in
5:48 AM 6:40 PM
Waning Gibbous, 82% visible
Pressure 29.80 in
Visibility 6.2 miles
Clouds Scattered Clouds 800 ft
Heat Index 86 °F
Dew Point 75 °F
Humidity 84%
Rainfall 0.00 in
Snow Depth Not available.
UV 7 out of 12
Pollen Not available.
Air Quality Not available.
Flu Activity Not available.
METAR VTUD 040200Z 15004KT 100V200 9999 SCT008 27/24 Q1009 A2980

More Conditions Fewer Conditions

Pressure 29.80 in
Visibility 6.2 miles
Clouds Scattered Clouds 800 ft
Heat Index 86 °F
Dew Point 75 °F
Humidity 84%
Rainfall 0.00 in
Snow Depth Not available.
UV 7 out of 12
Pollen Not available.
Air Quality Not available.
Flu Activity Not available.
METAR VTUD 040200Z 15004KT 100V200 9999 SCT008 27/24 Q1009 A2980

More Conditions Fewer Conditions

10-Day Weather Forecast

×

Almanac

Astronomy

Aug. 04, 2015 Rise Set
Actual Time
Civil Twilight
Nautical Twilight
Astronomical Twilight
Moon
Length of Visible Light
Length of Day
Tomorrow will be .
, % of the Moon is Illuminated

Today's Extremes

Country Highs Country Lows

Community

WunderPhotos

Upload Photos

1,843,831 photos uploaded!

WunderBlogs® & News

Nearby

Air Quality

  Air Quality AQ Index Pollutant
Not available.

Snow Depth

Station Depth Elevation

Earthquake Activity

City Distance Mag. Time & Date
Minimum magnitude displayed is 2.5.

Coastal Water Temperatures

Place Temperature

Stations

Nearby Weather Stations

Station Location Temp. Windchill Dew Point Humidity Wind Precip. Elev Updated Type